createdAt,value
2017-10-17T00:00:15.751Z,1012.1
2017-10-17T00:00:56.136Z,1012.18
2017-10-17T00:01:36.494Z,1012.11
2017-10-17T00:02:16.940Z,1012.16
2017-10-17T00:02:57.348Z,1012.18
2017-10-17T00:03:37.723Z,1012.13
2017-10-17T00:04:18.159Z,1012.2
2017-10-17T00:04:58.534Z,1012.19
2017-10-17T00:05:38.998Z,1012.19
2017-10-17T00:06:19.417Z,1012.16
2017-10-17T00:06:59.813Z,1012.19
2017-10-17T00:07:40.274Z,1012.2
2017-10-17T00:08:20.619Z,1012.2
2017-10-17T00:09:01.019Z,1012.21
2017-10-17T00:09:41.442Z,1012.24
2017-10-17T00:10:21.799Z,1012.21
2017-10-17T00:11:02.223Z,1012.22
2017-10-17T00:11:42.651Z,1012.22
2017-10-17T00:12:23.025Z,1012.21
2017-10-17T00:13:03.459Z,1012.24
2017-10-17T00:13:43.860Z,1012.25
2017-10-17T00:14:24.301Z,1012.24
2017-10-17T00:15:04.665Z,1012.22
2017-10-17T00:15:45.156Z,1012.24
2017-10-17T00:16:25.549Z,1012.21
2017-10-17T00:17:05.924Z,1012.21
2017-10-17T00:17:46.288Z,1012.19
2017-10-17T00:18:26.772Z,1012.21
2017-10-17T00:19:07.169Z,1012.17
2017-10-17T00:19:47.566Z,1012.2
2017-10-17T00:20:27.937Z,1012.2
2017-10-17T00:21:08.310Z,1012.15
2017-10-17T00:21:48.802Z,1012.2
2017-10-17T00:22:29.227Z,1012.17
2017-10-17T00:23:09.557Z,1012.17
2017-10-17T00:23:50.037Z,1012.14
2017-10-17T00:24:30.514Z,1012.14
2017-10-17T00:25:11.019Z,1012.12
2017-10-17T00:25:51.454Z,1012.17
2017-10-17T00:26:31.953Z,1012.18
2017-10-17T00:27:12.426Z,1012.16
2017-10-17T00:27:52.809Z,1012.13
2017-10-17T00:28:33.172Z,1012.14
2017-10-17T00:29:13.702Z,1012.16
2017-10-17T00:29:54.089Z,1012.15
2017-10-17T00:30:34.528Z,1012.15
2017-10-17T00:31:14.900Z,1012.11
2017-10-17T00:31:55.343Z,1012.09
2017-10-17T00:32:35.778Z,1012.12
2017-10-17T00:33:16.220Z,1012.1
2017-10-17T00:33:56.685Z,1012.12
2017-10-17T00:34:37.075Z,1012.18
2017-10-17T00:35:17.478Z,1012.18
2017-10-17T00:35:57.882Z,1012.23
2017-10-17T00:36:38.287Z,1012.17
2017-10-17T00:37:18.702Z,1012.15
2017-10-17T00:37:59.054Z,1012.15
2017-10-17T00:38:39.576Z,1012.08
2017-10-17T00:39:19.927Z,1012.14
2017-10-17T00:40:00.322Z,1012.11
2017-10-17T00:40:40.703Z,1012.14
2017-10-17T00:41:21.152Z,1012.1
2017-10-17T00:42:01.523Z,1012.11
2017-10-17T00:42:41.979Z,1012.12
2017-10-17T00:43:22.343Z,1012.12
2017-10-17T00:44:02.844Z,1012.12
2017-10-17T00:44:43.251Z,1012.11
2017-10-17T00:45:23.683Z,1012.08
2017-10-17T00:46:04.120Z,1012.08
2017-10-17T00:46:44.544Z,1012.1
2017-10-17T00:47:24.972Z,1012.05
2017-10-17T00:48:05.401Z,1012.05
2017-10-17T00:48:45.886Z,1012.08
2017-10-17T00:49:26.229Z,1012.07
2017-10-17T00:50:06.671Z,1012.13
2017-10-17T00:50:47.039Z,1012.12
2017-10-17T00:51:27.508Z,1012.13
2017-10-17T00:52:07.969Z,1012.12
2017-10-17T00:52:48.451Z,1012.13
2017-10-17T00:53:28.871Z,1012.12
2017-10-17T00:54:09.281Z,1012.13
2017-10-17T00:54:49.666Z,1012.16
2017-10-17T00:55:30.161Z,1012.17
2017-10-17T00:56:10.552Z,1012.14
2017-10-17T00:56:50.959Z,1012.16
2017-10-17T00:57:31.380Z,1012.14
2017-10-17T00:58:11.796Z,1012.18
2017-10-17T00:58:52.145Z,1012.16
2017-10-17T00:59:32.544Z,1012.13
2017-10-17T01:00:12.903Z,1012.13
2017-10-17T01:00:53.363Z,1012.14
2017-10-17T01:01:33.736Z,1012.08
2017-10-17T01:02:14.156Z,1012.14
2017-10-17T01:02:54.593Z,1012.13
2017-10-17T01:03:35.016Z,1012.13
2017-10-17T01:04:15.397Z,1012.1
2017-10-17T01:04:55.830Z,1012.13
2017-10-17T01:05:36.196Z,1012.09
2017-10-17T01:06:16.572Z,1012.06
2017-10-17T01:06:56.987Z,1012.11
2017-10-17T01:07:37.500Z,1012.07
2017-10-17T01:08:18.058Z,1012.05
2017-10-17T01:08:58.434Z,1012.05
2017-10-17T01:09:38.949Z,1012.06
2017-10-17T01:10:19.408Z,1012.04
2017-10-17T01:10:59.806Z,1012.05
2017-10-17T01:11:40.230Z,1012.07
2017-10-17T01:12:20.768Z,1012.08
2017-10-17T01:13:01.113Z,1012.1
2017-10-17T01:13:41.534Z,1012.1
2017-10-17T01:14:21.956Z,1012.07
2017-10-17T01:15:02.369Z,1012.1
2017-10-17T01:15:42.780Z,1012.07
2017-10-17T01:16:23.232Z,1012.06
2017-10-17T01:17:03.642Z,1012.07
2017-10-17T01:17:44.111Z,1012.02
2017-10-17T01:18:24.467Z,1012.06
2017-10-17T01:19:04.878Z,1012.04
2017-10-17T01:19:45.288Z,1012.03
2017-10-17T01:20:25.666Z,1012.06
2017-10-17T01:21:06.079Z,1012.07
2017-10-17T01:21:46.535Z,1012.1
2017-10-17T01:22:26.906Z,1012.1
2017-10-17T01:23:07.352Z,1012.11
2017-10-17T01:23:47.761Z,1012.07
2017-10-17T01:24:28.196Z,1012.12
2017-10-17T01:25:08.618Z,1012.12
2017-10-17T01:25:49.056Z,1012.15
2017-10-17T01:26:29.413Z,1012.13
2017-10-17T01:27:09.805Z,1012.16
2017-10-17T01:27:50.263Z,1012.14
2017-10-17T01:28:30.687Z,1012.13
2017-10-17T01:29:11.062Z,1012.11
2017-10-17T01:29:51.499Z,1012.1
2017-10-17T01:30:31.860Z,1012.09
2017-10-17T01:31:12.255Z,1012.1
2017-10-17T01:31:52.709Z,1012.11
2017-10-17T01:32:33.094Z,1012.11
2017-10-17T01:33:13.541Z,1012.13
2017-10-17T01:33:54.075Z,1012.11
2017-10-17T01:34:34.420Z,1012.14
2017-10-17T01:35:14.867Z,1012.15
2017-10-17T01:35:55.318Z,1012.19
2017-10-17T01:36:35.703Z,1012.16
2017-10-17T01:37:16.199Z,1012.16
2017-10-17T01:37:56.476Z,1012.16
2017-10-17T01:38:36.903Z,1012.21
2017-10-17T01:39:17.309Z,1012.18
2017-10-17T01:39:57.714Z,1012.18
2017-10-17T01:40:38.258Z,1012.19
2017-10-17T01:41:18.656Z,1012.17
2017-10-17T01:41:59.067Z,1012.16
2017-10-17T01:42:39.427Z,1012.19
2017-10-17T01:43:19.915Z,1012.16
2017-10-17T01:44:00.325Z,1012.19
2017-10-17T01:44:40.779Z,1012.18
2017-10-17T01:45:21.140Z,1012.2
2017-10-17T01:46:01.604Z,1012.21
2017-10-17T01:46:41.935Z,1012.19
2017-10-17T01:47:22.415Z,1012.21
2017-10-17T01:48:02.835Z,1012.19
2017-10-17T01:48:43.385Z,1012.24
2017-10-17T01:49:23.850Z,1012.23
2017-10-17T01:50:04.431Z,1012.24
2017-10-17T01:50:44.857Z,1012.22
2017-10-17T01:51:25.302Z,1012.22
2017-10-17T01:52:05.660Z,1012.27
2017-10-17T01:52:46.058Z,1012.18
2017-10-17T01:53:26.400Z,1012.27
2017-10-17T01:54:06.818Z,1012.24
2017-10-17T01:54:47.258Z,1012.24
2017-10-17T01:55:27.599Z,1012.25
2017-10-17T01:56:08.112Z,1012.26
2017-10-17T01:56:48.555Z,1012.25
2017-10-17T01:57:29.027Z,1012.24
2017-10-17T01:58:09.449Z,1012.23
2017-10-17T01:58:49.946Z,1012.24
2017-10-17T01:59:30.380Z,1012.2
2017-10-17T02:00:10.897Z,1012.16
2017-10-17T02:00:51.284Z,1012.19
2017-10-17T02:01:31.731Z,1012.19
2017-10-17T02:02:12.087Z,1012.23
2017-10-17T02:02:52.548Z,1012.25
2017-10-17T02:03:32.939Z,1012.21
2017-10-17T02:04:13.337Z,1012.22
2017-10-17T02:04:53.753Z,1012.26
2017-10-17T02:05:34.145Z,1012.25
2017-10-17T02:06:14.581Z,1012.24
2017-10-17T02:06:54.976Z,1012.21
2017-10-17T02:07:35.437Z,1012.22
2017-10-17T02:08:15.795Z,1012.23
2017-10-17T02:08:56.175Z,1012.24
2017-10-17T02:09:36.654Z,1012.23
2017-10-17T02:10:17.034Z,1012.26
2017-10-17T02:10:57.412Z,1012.23
2017-10-17T02:11:37.850Z,1012.23
2017-10-17T02:12:18.228Z,1012.25
2017-10-17T02:12:58.604Z,1012.25
2017-10-17T02:13:38.996Z,1012.27
2017-10-17T02:14:19.412Z,1012.27
2017-10-17T02:14:59.911Z,1012.25
2017-10-17T02:15:40.342Z,1012.25
2017-10-17T02:16:20.700Z,1012.25
2017-10-17T02:17:01.144Z,1012.24
2017-10-17T02:17:41.525Z,1012.19
2017-10-17T02:18:21.908Z,1012.17
2017-10-17T02:19:02.292Z,1012.21
2017-10-17T02:19:42.705Z,1012.21
2017-10-17T02:20:23.114Z,1012.18
2017-10-17T02:21:03.535Z,1012.21
2017-10-17T02:21:43.955Z,1012.19
2017-10-17T02:22:24.329Z,1012.21
2017-10-17T02:23:04.766Z,1012.17
2017-10-17T02:23:45.306Z,1012.2
2017-10-17T02:24:25.839Z,1012.19
2017-10-17T02:25:06.280Z,1012.21
2017-10-17T02:25:46.705Z,1012.23
2017-10-17T02:26:27.187Z,1012.19
2017-10-17T02:27:07.643Z,1012.19
2017-10-17T02:27:48.035Z,1012.19
2017-10-17T02:28:28.461Z,1012.18
2017-10-17T02:29:08.906Z,1012.19
2017-10-17T02:29:49.253Z,1012.22
2017-10-17T02:30:29.678Z,1012.22
2017-10-17T02:31:10.026Z,1012.21
2017-10-17T02:31:50.512Z,1012.25
2017-10-17T02:32:30.845Z,1012.21
2017-10-17T02:33:11.398Z,1012.22
2017-10-17T02:33:51.829Z,1012.24
2017-10-17T02:34:32.295Z,1012.24
2017-10-17T02:35:12.732Z,1012.26
2017-10-17T02:35:53.151Z,1012.23
2017-10-17T02:36:33.539Z,1012.27
2017-10-17T02:37:13.915Z,1012.25
2017-10-17T02:37:54.322Z,1012.24
2017-10-17T02:38:34.705Z,1012.25
2017-10-17T02:39:15.155Z,1012.25
2017-10-17T02:39:55.550Z,1012.28
2017-10-17T02:40:36.080Z,1012.28
2017-10-17T02:41:16.503Z,1012.3
2017-10-17T02:41:56.964Z,1012.3
2017-10-17T02:42:37.413Z,1012.28
2017-10-17T02:43:17.840Z,1012.3
2017-10-17T02:43:58.445Z,1012.31
2017-10-17T02:44:38.849Z,1012.31
2017-10-17T02:45:19.540Z,1012.31
2017-10-17T02:46:00.028Z,1012.28
2017-10-17T02:46:40.387Z,1012.29
2017-10-17T02:47:20.868Z,1012.35
2017-10-17T02:48:01.239Z,1012.33
2017-10-17T02:48:41.622Z,1012.33
2017-10-17T02:49:22.067Z,1012.36
2017-10-17T02:50:02.426Z,1012.33
2017-10-17T02:50:42.966Z,1012.33
2017-10-17T02:51:23.433Z,1012.35
2017-10-17T02:52:03.839Z,1012.36
2017-10-17T02:52:44.272Z,1012.34
2017-10-17T02:53:24.764Z,1012.37
2017-10-17T02:54:05.187Z,1012.38
2017-10-17T02:54:45.582Z,1012.33
2017-10-17T02:55:25.971Z,1012.38
2017-10-17T02:56:06.355Z,1012.33
2017-10-17T02:56:46.777Z,1012.33
2017-10-17T02:57:27.229Z,1012.26
2017-10-17T02:58:07.658Z,1012.32
2017-10-17T02:58:48.077Z,1012.32
2017-10-17T02:59:28.478Z,1012.3
2017-10-17T03:00:08.885Z,1012.3
2017-10-17T03:00:49.214Z,1012.32
2017-10-17T03:01:29.636Z,1012.33
2017-10-17T03:02:10.038Z,1012.29
2017-10-17T03:02:50.475Z,1012.35
2017-10-17T03:03:30.908Z,1012.34
2017-10-17T03:04:11.377Z,1012.35
2017-10-17T03:04:51.722Z,1012.33
2017-10-17T03:05:32.153Z,1012.33
2017-10-17T03:06:12.520Z,1012.3
2017-10-17T03:06:53.021Z,1012.34
2017-10-17T03:07:33.421Z,1012.31
2017-10-17T03:08:13.851Z,1012.35
2017-10-17T03:08:54.283Z,1012.31
2017-10-17T03:09:34.704Z,1012.32
2017-10-17T03:10:15.139Z,1012.32
2017-10-17T03:10:55.511Z,1012.33
2017-10-17T03:11:35.916Z,1012.3
2017-10-17T03:12:16.373Z,1012.29
2017-10-17T03:12:56.786Z,1012.32
2017-10-17T03:13:37.269Z,1012.37
2017-10-17T03:14:17.682Z,1012.32
2017-10-17T03:14:58.077Z,1012.32
2017-10-17T03:15:38.500Z,1012.33
2017-10-17T03:16:18.914Z,1012.38
2017-10-17T03:16:59.332Z,1012.34
2017-10-17T03:17:39.812Z,1012.31
2017-10-17T03:18:20.086Z,1012.34
2017-10-17T03:19:00.521Z,1012.32
2017-10-17T03:19:40.999Z,1012.31
2017-10-17T03:20:21.491Z,1012.32
2017-10-17T03:21:01.870Z,1012.31
2017-10-17T03:21:42.245Z,1012.32
2017-10-17T03:22:22.751Z,1012.3
2017-10-17T03:23:03.118Z,1012.32
2017-10-17T03:23:43.568Z,1012.32
2017-10-17T03:24:23.932Z,1012.32
2017-10-17T03:25:04.386Z,1012.36
2017-10-17T03:25:44.779Z,1012.36
2017-10-17T03:26:25.131Z,1012.35
2017-10-17T03:27:05.533Z,1012.36
2017-10-17T03:27:45.954Z,1012.37
2017-10-17T03:28:26.391Z,1012.43
2017-10-17T03:29:06.841Z,1012.41
2017-10-17T03:29:47.280Z,1012.41
2017-10-17T03:30:27.686Z,1012.41
2017-10-17T03:31:08.062Z,1012.45
2017-10-17T03:31:48.553Z,1012.43
2017-10-17T03:32:28.904Z,1012.44
2017-10-17T03:33:09.307Z,1012.45
2017-10-17T03:33:49.701Z,1012.43
2017-10-17T03:34:30.214Z,1012.46
2017-10-17T03:35:10.573Z,1012.48
2017-10-17T03:35:51.006Z,1012.47
2017-10-17T03:36:31.403Z,1012.49
2017-10-17T03:37:11.801Z,1012.52
2017-10-17T03:37:52.180Z,1012.5
2017-10-17T03:38:32.557Z,1012.54
2017-10-17T03:39:13.025Z,1012.46
2017-10-17T03:39:53.424Z,1012.45
2017-10-17T03:40:33.777Z,1012.5
2017-10-17T03:41:14.196Z,1012.48
2017-10-17T03:41:54.622Z,1012.48
2017-10-17T03:42:35.079Z,1012.45
2017-10-17T03:43:15.356Z,1012.44
2017-10-17T03:43:55.781Z,1012.46
2017-10-17T03:44:36.326Z,1012.5
2017-10-17T03:45:16.663Z,1012.49
2017-10-17T03:45:57.239Z,1012.51
2017-10-17T03:46:37.615Z,1012.52
2017-10-17T03:47:18.022Z,1012.47
2017-10-17T03:47:58.406Z,1012.48
2017-10-17T03:48:38.917Z,1012.49
2017-10-17T03:49:19.383Z,1012.48
2017-10-17T03:49:59.797Z,1012.47
2017-10-17T03:50:40.172Z,1012.48
2017-10-17T03:51:20.536Z,1012.48
2017-10-17T03:52:01.006Z,1012.47
2017-10-17T03:52:41.511Z,1012.5
2017-10-17T03:53:21.843Z,1012.48
2017-10-17T03:54:02.278Z,1012.48
2017-10-17T03:54:42.685Z,1012.55
2017-10-17T03:55:23.207Z,1012.53
2017-10-17T03:56:03.539Z,1012.48
2017-10-17T03:56:44.017Z,1012.5
2017-10-17T03:57:24.472Z,1012.52
2017-10-17T03:58:04.971Z,1012.56
2017-10-17T03:58:45.378Z,1012.52
2017-10-17T03:59:25.817Z,1012.54
2017-10-17T04:00:06.314Z,1012.54
2017-10-17T04:00:46.733Z,1012.59
2017-10-17T04:01:27.112Z,1012.59
2017-10-17T04:02:07.511Z,1012.6
2017-10-17T04:02:47.964Z,1012.54
2017-10-17T04:03:28.376Z,1012.6
2017-10-17T04:04:08.758Z,1012.59
2017-10-17T04:04:49.161Z,1012.61
2017-10-17T04:05:29.584Z,1012.66
2017-10-17T04:06:09.937Z,1012.64
2017-10-17T04:06:50.392Z,1012.62
2017-10-17T04:07:30.804Z,1012.61
2017-10-17T04:08:11.307Z,1012.65
2017-10-17T04:08:51.747Z,1012.63
2017-10-17T04:09:32.153Z,1012.63
2017-10-17T04:10:12.559Z,1012.63
2017-10-17T04:10:52.964Z,1012.65
2017-10-17T04:11:33.448Z,1012.67
2017-10-17T04:12:14.513Z,1012.66
2017-10-17T04:12:54.181Z,1012.68
2017-10-17T04:13:34.586Z,1012.69
2017-10-17T04:14:14.955Z,1012.67
2017-10-17T04:14:55.452Z,1012.64
2017-10-17T04:15:36.148Z,1012.63
2017-10-17T04:16:16.599Z,1012.68
2017-10-17T04:16:57.162Z,1012.66
2017-10-17T04:17:37.598Z,1012.67
2017-10-17T04:18:18.015Z,1012.7
2017-10-17T04:18:58.481Z,1012.72
2017-10-17T04:19:39.142Z,1012.72
2017-10-17T04:20:19.804Z,1012.7
2017-10-17T04:20:59.980Z,1012.71
2017-10-17T04:21:40.414Z,1012.66
2017-10-17T04:22:20.861Z,1012.68
2017-10-17T04:23:01.302Z,1012.7
2017-10-17T04:23:41.703Z,1012.66
2017-10-17T04:24:23.020Z,1012.64
2017-10-17T04:25:03.404Z,1012.61
2017-10-17T04:25:43.908Z,1012.66
2017-10-17T04:26:24.210Z,1012.64
2017-10-17T04:27:04.725Z,1012.6
2017-10-17T04:27:45.257Z,1012.65
2017-10-17T04:28:25.683Z,1012.63
2017-10-17T04:29:06.142Z,1012.66
2017-10-17T04:29:46.498Z,1012.63
2017-10-17T04:30:26.941Z,1012.61
2017-10-17T04:31:07.310Z,1012.64
2017-10-17T04:31:47.745Z,1012.6
2017-10-17T04:32:28.394Z,1012.66
2017-10-17T04:33:08.804Z,1012.67
2017-10-17T04:33:49.210Z,1012.69
2017-10-17T04:34:29.646Z,1012.66
2017-10-17T04:35:10.065Z,1012.7
2017-10-17T04:35:50.526Z,1012.7
2017-10-17T04:36:30.932Z,1012.71
2017-10-17T04:37:11.485Z,1012.71
2017-10-17T04:37:51.861Z,1012.69
2017-10-17T04:38:32.259Z,1012.69
2017-10-17T04:39:12.759Z,1012.71
2017-10-17T04:39:53.092Z,1012.74
2017-10-17T04:40:33.515Z,1012.73
2017-10-17T04:41:13.987Z,1012.76
2017-10-17T04:41:54.436Z,1012.77
2017-10-17T04:42:34.871Z,1012.76
2017-10-17T04:43:15.488Z,1012.79
2017-10-17T04:43:55.897Z,1012.79
2017-10-17T04:44:36.236Z,1012.76
2017-10-17T04:45:16.693Z,1012.76
2017-10-17T04:45:57.033Z,1012.72
2017-10-17T04:46:37.555Z,1012.68
2017-10-17T04:47:17.922Z,1012.75
2017-10-17T04:47:58.387Z,1012.72
2017-10-17T04:48:38.744Z,1012.75
2017-10-17T04:49:19.087Z,1012.75
2017-10-17T04:49:59.610Z,1012.78
2017-10-17T04:50:40.056Z,1012.77
2017-10-17T04:51:20.477Z,1012.8
2017-10-17T04:52:00.965Z,1012.81
2017-10-17T04:52:41.485Z,1012.8
2017-10-17T04:53:21.941Z,1012.8
2017-10-17T04:54:02.418Z,1012.82
2017-10-17T04:54:42.840Z,1012.81
2017-10-17T04:55:23.103Z,1012.82
2017-10-17T04:56:03.658Z,1012.81
2017-10-17T04:56:44.413Z,1012.88
2017-10-17T04:57:24.745Z,1012.88
2017-10-17T04:58:05.242Z,1012.85
2017-10-17T04:58:45.967Z,1012.83
2017-10-17T04:59:26.393Z,1012.87
2017-10-17T05:00:06.834Z,1012.87
2017-10-17T05:00:47.216Z,1012.85
2017-10-17T05:01:27.615Z,1012.86
2017-10-17T05:02:08.026Z,1012.81
2017-10-17T05:02:48.462Z,1012.84
2017-10-17T05:03:29.120Z,1012.83
2017-10-17T05:04:09.327Z,1012.86
2017-10-17T05:04:49.752Z,1012.87
2017-10-17T05:05:30.118Z,1012.86
2017-10-17T05:06:10.620Z,1012.86
2017-10-17T05:06:51.010Z,1012.88
2017-10-17T05:07:31.435Z,1012.88
2017-10-17T05:08:11.886Z,1012.9
2017-10-17T05:08:52.284Z,1012.87
2017-10-17T05:09:32.841Z,1012.91
2017-10-17T05:10:13.237Z,1012.91
2017-10-17T05:10:53.715Z,1012.93
2017-10-17T05:11:34.136Z,1012.88
2017-10-17T05:12:14.638Z,1012.85
2017-10-17T05:12:55.161Z,1012.88
2017-10-17T05:13:36.644Z,1012.9
2017-10-17T05:14:17.084Z,1012.89
2017-10-17T05:14:57.503Z,1012.89
2017-10-17T05:15:37.908Z,1012.86
2017-10-17T05:16:18.360Z,1012.83
2017-10-17T05:16:58.720Z,1012.83
2017-10-17T05:17:39.146Z,1012.87
2017-10-17T05:18:19.496Z,1012.91
2017-10-17T05:19:00.015Z,1012.9
2017-10-17T05:19:40.549Z,1012.86
2017-10-17T05:20:21.021Z,1012.88
2017-10-17T05:21:01.381Z,1012.88
2017-10-17T05:21:47.325Z,1012.89
2017-10-17T05:22:30.262Z,1012.85
2017-10-17T05:23:10.518Z,1012.86
2017-10-17T05:23:55.519Z,1012.86
2017-10-17T05:24:55.841Z,1012.87
2017-10-17T05:25:36.491Z,1012.89
2017-10-17T05:26:20.783Z,1012.86
2017-10-17T05:27:01.175Z,1012.9
2017-10-17T05:27:43.765Z,1012.84
2017-10-17T05:28:26.368Z,1012.85
2017-10-17T05:29:06.875Z,1012.81
2017-10-17T05:29:47.270Z,1012.83
2017-10-17T05:30:27.880Z,1012.86
2017-10-17T05:31:08.328Z,1012.89
2017-10-17T05:31:48.777Z,1012.84
2017-10-17T05:32:29.267Z,1012.86
2017-10-17T05:33:09.634Z,1012.88
2017-10-17T05:33:50.026Z,1012.91
2017-10-17T05:34:30.528Z,1012.88
2017-10-17T05:35:10.896Z,1012.87
2017-10-17T05:35:51.227Z,1012.89
2017-10-17T05:36:31.799Z,1012.9
2017-10-17T05:37:12.286Z,1012.87
2017-10-17T05:37:52.665Z,1012.9
2017-10-17T05:38:33.092Z,1012.89
2017-10-17T05:39:16.035Z,1012.88
2017-10-17T05:40:15.167Z,1012.9
2017-10-17T05:40:55.542Z,1012.9
2017-10-17T05:41:36.052Z,1012.87
2017-10-17T05:42:16.548Z,1012.91
2017-10-17T05:42:57.119Z,1012.89
2017-10-17T05:43:37.598Z,1012.92
2017-10-17T05:44:18.173Z,1012.88
2017-10-17T05:44:59.228Z,1012.93
2017-10-17T05:47:42.243Z,1012.92
2017-10-17T05:52:15.982Z,1012.89
2017-10-17T05:52:59.353Z,1012.86
2017-10-17T05:53:40.352Z,1012.9
2017-10-17T05:54:20.807Z,1012.95
2017-10-17T05:55:01.223Z,1012.97
2017-10-17T05:55:41.691Z,1012.96
2017-10-17T05:56:22.199Z,1012.95
2017-10-17T05:57:03.305Z,1012.96
2017-10-17T06:27:20.311Z,1013.19
2017-10-17T06:28:09.355Z,1013.13
2017-10-17T06:28:58.443Z,1013.18
2017-10-17T06:29:48.956Z,1013.17
2017-10-17T06:30:38.684Z,1013.2
2017-10-17T06:31:29.083Z,1013.21
2017-10-17T06:32:17.207Z,1013.2
2017-10-17T06:33:06.274Z,1013.22
2017-10-17T06:33:54.969Z,1013.18
2017-10-17T06:34:44.221Z,1013.22
2017-10-17T06:35:34.491Z,1013.22
2017-10-17T06:36:23.135Z,1013.22
2017-10-17T06:38:49.208Z,1013.27
2017-10-17T06:39:30.379Z,1013.29
2017-10-17T06:40:12.204Z,1013.27
2017-10-17T06:40:54.451Z,1013.27
2017-10-17T06:41:37.772Z,1013.28
2017-10-17T06:42:18.042Z,1013.24
2017-10-17T06:43:00.750Z,1013.28
2017-10-17T06:43:41.108Z,1013.31
2017-10-17T06:44:21.679Z,1013.24
2017-10-17T06:45:02.666Z,1013.25
2017-10-17T06:45:43.441Z,1013.27
2017-10-17T06:47:29.879Z,1013.31
2017-10-17T06:48:10.346Z,1013.27
2017-10-17T06:48:50.888Z,1013.25
2017-10-17T06:49:31.359Z,1013.21
2017-10-17T06:50:11.809Z,1013.24
2017-10-17T06:50:52.305Z,1013.23
2017-10-17T06:51:32.694Z,1013.25
2017-10-17T06:52:13.107Z,1013.26
2017-10-17T06:52:53.698Z,1013.27
2017-10-17T06:53:34.079Z,1013.23
2017-10-17T06:54:14.601Z,1013.25
2017-10-17T06:54:55.229Z,1013.25
2017-10-17T06:55:35.799Z,1013.28
2017-10-17T06:56:16.159Z,1013.3
2017-10-17T06:56:56.574Z,1013.27
2017-10-17T06:57:37.029Z,1013.3
2017-10-17T06:58:17.625Z,1013.31
2017-10-17T06:58:58.129Z,1013.3
2017-10-17T06:59:38.613Z,1013.29
2017-10-17T07:00:19.036Z,1013.31
2017-10-17T07:00:59.396Z,1013.33
2017-10-17T07:01:40.019Z,1013.33
2017-10-17T07:02:20.392Z,1013.38
2017-10-17T07:03:00.919Z,1013.37
2017-10-17T07:03:41.272Z,1013.37
2017-10-17T07:04:21.794Z,1013.39
2017-10-17T07:05:02.164Z,1013.39
2017-10-17T07:05:42.681Z,1013.39
2017-10-17T07:06:23.093Z,1013.38
2017-10-17T07:07:03.648Z,1013.39
2017-10-17T07:07:44.068Z,1013.37
2017-10-17T07:08:24.637Z,1013.38
2017-10-17T07:09:05.038Z,1013.42
2017-10-17T07:09:45.502Z,1013.42
2017-10-17T07:13:18.394Z,1013.41
2017-10-17T07:13:59.365Z,1013.42
2017-10-17T07:14:39.888Z,1013.38
2017-10-17T07:15:20.364Z,1013.37
2017-10-17T07:16:00.731Z,1013.39
2017-10-17T07:16:41.220Z,1013.43
2017-10-17T07:17:21.625Z,1013.39
2017-10-17T07:18:02.222Z,1013.43
2017-10-17T07:18:43.713Z,1013.45
2017-10-17T07:19:23.762Z,1013.43
2017-10-17T07:20:04.271Z,1013.4
2017-10-17T07:20:44.891Z,1013.39
2017-10-17T07:21:25.779Z,1013.38
2017-10-17T07:22:05.989Z,1013.35
2017-10-17T07:22:46.510Z,1013.4
2017-10-17T07:23:26.937Z,1013.42
2017-10-17T07:24:08.006Z,1013.45
2017-10-17T07:24:48.449Z,1013.41
2017-10-17T07:25:28.948Z,1013.36
2017-10-17T07:26:09.392Z,1013.38
2017-10-17T07:26:49.885Z,1013.39
2017-10-17T07:27:30.539Z,1013.41
2017-10-17T07:28:11.143Z,1013.39
2017-10-17T07:28:51.610Z,1013.39
2017-10-17T07:29:32.120Z,1013.37
2017-10-17T07:30:12.580Z,1013.38
2017-10-17T07:30:53.096Z,1013.35
2017-10-17T07:31:33.514Z,1013.35
2017-10-17T07:32:13.980Z,1013.37
2017-10-17T07:32:54.366Z,1013.32
2017-10-17T07:33:35.427Z,1013.37
2017-10-17T07:34:15.937Z,1013.4
2017-10-17T07:34:56.205Z,1013.37
2017-10-17T07:35:37.955Z,1013.4
2017-10-17T07:36:19.409Z,1013.4
2017-10-17T07:36:59.231Z,1013.37
2017-10-17T07:37:39.810Z,1013.42
2017-10-17T07:38:20.385Z,1013.4
2017-10-17T07:39:00.794Z,1013.39
2017-10-17T07:39:41.702Z,1013.36
2017-10-17T07:40:22.030Z,1013.35
2017-10-17T07:41:02.468Z,1013.35
2017-10-17T07:41:42.913Z,1013.41
2017-10-17T07:42:23.455Z,1013.4
2017-10-17T07:43:03.912Z,1013.37
2017-10-17T07:43:44.324Z,1013.38
2017-10-17T07:44:24.767Z,1013.38
2017-10-17T07:45:05.200Z,1013.36
2017-10-17T07:45:45.822Z,1013.33
2017-10-17T07:46:26.465Z,1013.34
2017-10-17T07:47:07.145Z,1013.31
2017-10-17T07:47:47.896Z,1013.31
2017-10-17T07:48:29.469Z,1013.33
2017-10-17T07:49:10.378Z,1013.33
2017-10-17T07:49:50.968Z,1013.35
2017-10-17T07:50:31.678Z,1013.31
2017-10-17T07:51:12.068Z,1013.34
2017-10-17T07:51:52.587Z,1013.32
2017-10-17T07:52:33.198Z,1013.32
2017-10-17T07:53:14.289Z,1013.31
2017-10-17T07:53:55.441Z,1013.32
2017-10-17T07:54:35.751Z,1013.3
2017-10-17T07:55:16.524Z,1013.31
2017-10-17T07:55:57.432Z,1013.32
2017-10-17T07:56:37.901Z,1013.3
2017-10-17T07:57:18.545Z,1013.35
2017-10-17T07:57:58.814Z,1013.36
2017-10-17T07:58:39.357Z,1013.36
2017-10-17T07:59:19.967Z,1013.33
2017-10-17T08:00:01.385Z,1013.31
2017-10-17T08:00:41.611Z,1013.3
2017-10-17T08:01:22.148Z,1013.32
2017-10-17T08:02:02.773Z,1013.37
2017-10-17T08:02:43.306Z,1013.34
2017-10-17T08:03:24.025Z,1013.34
2017-10-17T08:04:04.554Z,1013.34
2017-10-17T08:04:45.055Z,1013.35
2017-10-17T08:05:25.861Z,1013.41
2017-10-17T08:06:06.290Z,1013.42
2017-10-17T08:06:46.742Z,1013.42
2017-10-17T08:07:27.450Z,1013.41
2017-10-17T08:08:07.904Z,1013.35
2017-10-17T08:08:49.624Z,1013.37
2017-10-17T08:09:30.217Z,1013.36
2017-10-17T08:10:10.708Z,1013.33
2017-10-17T08:10:51.075Z,1013.38
2017-10-17T08:11:35.464Z,1013.36
2017-10-17T08:12:15.863Z,1013.33
2017-10-17T08:12:56.766Z,1013.34
2017-10-17T08:13:37.305Z,1013.34
2017-10-17T08:14:17.758Z,1013.36
2017-10-17T08:14:58.259Z,1013.35
2017-10-17T08:15:38.728Z,1013.38
2017-10-17T08:16:19.352Z,1013.35
2017-10-17T08:17:00.229Z,1013.36
2017-10-17T08:17:40.741Z,1013.36
2017-10-17T08:18:21.166Z,1013.39
2017-10-17T08:19:01.600Z,1013.38
2017-10-17T08:19:42.409Z,1013.36
2017-10-17T08:20:22.824Z,1013.33
2017-10-17T08:21:03.345Z,1013.34
2017-10-17T08:21:43.782Z,1013.34
2017-10-17T08:22:24.894Z,1013.3
2017-10-17T08:23:04.746Z,1013.34
2017-10-17T08:23:45.177Z,1013.3
2017-10-17T08:24:25.779Z,1013.25
2017-10-17T08:25:09.778Z,1013.27
2017-10-17T08:26:09.426Z,1013.22
2017-10-17T08:26:56.199Z,1013.2
2017-10-17T08:27:45.441Z,1013.22
2017-10-17T08:28:25.582Z,1013.22
2017-10-17T08:29:05.970Z,1013.18
2017-10-17T08:29:46.645Z,1013.22
2017-10-17T08:30:27.699Z,1013.21
2017-10-17T08:31:07.840Z,1013.21
2017-10-17T08:31:48.276Z,1013.24
2017-10-17T08:32:28.677Z,1013.23
2017-10-17T08:33:09.225Z,1013.25
2017-10-17T08:33:49.969Z,1013.24
2017-10-17T08:34:30.401Z,1013.26
2017-10-17T08:35:10.837Z,1013.25
2017-10-17T08:35:51.451Z,1013.24
2017-10-17T08:36:31.942Z,1013.27
2017-10-17T08:37:12.427Z,1013.26
2017-10-17T08:37:52.891Z,1013.22
2017-10-17T08:38:33.377Z,1013.24
2017-10-17T08:39:14.130Z,1013.22
2017-10-17T08:39:54.972Z,1013.25
2017-10-17T08:40:36.273Z,1013.23
2017-10-17T08:41:17.469Z,1013.27
2017-10-17T08:41:58.338Z,1013.21
2017-10-17T08:42:38.819Z,1013.18
2017-10-17T08:45:12.550Z,1013.18
2017-10-17T08:45:54.463Z,1013.19
2017-10-17T08:46:34.852Z,1013.14
2017-10-17T08:47:15.289Z,1013.18
2017-10-17T08:47:55.801Z,1013.15
2017-10-17T08:48:37.339Z,1013.17
2017-10-17T08:49:17.686Z,1013.18
2017-10-17T08:49:58.410Z,1013.19
2017-10-17T08:50:39.837Z,1013.15
2017-10-17T08:51:20.283Z,1013.2
2017-10-17T08:52:00.787Z,1013.16
2017-10-17T08:52:41.797Z,1013.17
2017-10-17T08:53:22.176Z,1013.19
2017-10-17T08:54:02.631Z,1013.17
2017-10-17T08:54:43.172Z,1013.2
2017-10-17T08:55:23.634Z,1013.22
2017-10-17T08:56:04.221Z,1013.2
2017-10-17T08:56:44.513Z,1013.18
2017-10-17T08:57:25.049Z,1013.18
2017-10-17T08:58:05.486Z,1013.13